createdAt,value
2018-07-31T00:00:46.015Z,48.96
2018-07-31T00:01:46.005Z,49.56
2018-07-31T00:02:46.002Z,48.57
2018-07-31T00:03:45.980Z,49.36
2018-07-31T00:04:46.038Z,49.36
2018-07-31T00:05:45.961Z,49.08
2018-07-31T00:06:45.950Z,49.38
2018-07-31T00:07:45.941Z,49.49
2018-07-31T00:08:45.930Z,48.79
2018-07-31T00:09:45.981Z,49.88
2018-07-31T00:10:45.912Z,49.78
2018-07-31T00:11:45.895Z,49.38
2018-07-31T00:12:45.887Z,48.99
2018-07-31T00:13:45.876Z,49.49
2018-07-31T00:14:45.931Z,49.49
2018-07-31T00:15:45.854Z,49.58
2018-07-31T00:16:46.486Z,49.38
2018-07-31T00:17:45.831Z,49.41
2018-07-31T00:18:45.822Z,49.21
2018-07-31T00:19:45.881Z,49.51
2018-07-31T00:20:45.798Z,49.31
2018-07-31T00:21:45.853Z,50.01
2018-07-31T00:22:45.776Z,49.61
2018-07-31T00:23:45.766Z,49.80
2018-07-31T00:24:45.755Z,49.21
2018-07-31T00:25:45.809Z,49.80
2018-07-31T00:26:45.729Z,49.71
2018-07-31T00:27:45.721Z,50.31
2018-07-31T00:28:45.710Z,50.01
2018-07-31T00:29:45.698Z,49.71
2018-07-31T00:30:45.751Z,50.60
2018-07-31T00:31:45.674Z,50.10
2018-07-31T00:32:45.663Z,50.10
2018-07-31T00:33:45.662Z,50.40
2018-07-31T00:34:45.644Z,50.10
2018-07-31T00:35:45.696Z,50.80
2018-07-31T00:36:45.645Z,50.40
2018-07-31T00:37:46.489Z,50.40
2018-07-31T00:38:45.602Z,50.23
2018-07-31T00:39:45.599Z,50.40
2018-07-31T00:40:45.641Z,50.03
2018-07-31T00:41:45.566Z,50.63
2018-07-31T00:42:45.555Z,50.52
2018-07-31T00:43:45.544Z,50.63
2018-07-31T00:44:45.535Z,50.43
2018-07-31T00:45:45.594Z,50.52
2018-07-31T00:46:45.513Z,50.52
2018-07-31T00:47:45.505Z,51.12
2018-07-31T00:48:45.494Z,51.12
2018-07-31T00:49:45.480Z,50.63
2018-07-31T00:50:45.559Z,51.03
2018-07-31T00:51:45.461Z,51.42
2018-07-31T00:52:45.450Z,51.22
2018-07-31T00:53:45.434Z,51.05
2018-07-31T00:54:45.425Z,51.12
2018-07-31T00:55:45.477Z,50.13
2018-07-31T00:56:45.404Z,50.65
2018-07-31T00:57:45.397Z,51.03
2018-07-31T00:58:45.984Z,51.42
2018-07-31T00:59:45.372Z,51.22
2018-07-31T01:00:45.422Z,50.33
2018-07-31T01:01:45.350Z,51.35
2018-07-31T01:02:45.339Z,51.42
2018-07-31T01:03:45.332Z,51.15
2018-07-31T01:04:45.318Z,51.65
2018-07-31T01:05:45.369Z,51.95
2018-07-31T01:06:45.337Z,51.75
2018-07-31T01:07:45.283Z,51.95
2018-07-31T01:08:45.275Z,49.85
2018-07-31T01:09:45.271Z,52.04
2018-07-31T01:10:45.317Z,52.14
2018-07-31T01:11:45.244Z,52.17
2018-07-31T01:12:45.231Z,51.84
2018-07-31T01:13:45.223Z,52.07
2018-07-31T01:14:45.209Z,51.75
2018-07-31T01:15:45.260Z,52.57
2018-07-31T01:16:45.191Z,52.07
2018-07-31T01:17:45.178Z,52.47
2018-07-31T01:18:45.168Z,52.57
2018-07-31T01:19:45.990Z,52.07
2018-07-31T01:20:45.206Z,52.37
2018-07-31T01:21:45.134Z,52.57
2018-07-31T01:22:45.121Z,52.27
2018-07-31T01:23:45.110Z,52.09
2018-07-31T01:24:45.099Z,52.47
2018-07-31T01:25:45.559Z,52.57
2018-07-31T01:26:45.079Z,52.00
2018-07-31T01:27:45.068Z,52.49
2018-07-31T01:28:45.057Z,52.69
2018-07-31T01:29:45.046Z,51.50
2018-07-31T01:30:45.099Z,51.89
2018-07-31T01:31:45.027Z,51.59
2018-07-31T01:32:45.015Z,52.39
2018-07-31T01:33:45.001Z,52.79
2018-07-31T01:34:44.994Z,52.89
2018-07-31T01:35:45.048Z,52.29
2018-07-31T01:36:44.971Z,53.29
2018-07-31T01:37:44.966Z,52.69
2018-07-31T01:38:44.951Z,52.29
2018-07-31T01:39:44.940Z,53.09
2018-07-31T01:40:45.060Z,52.19
2018-07-31T01:41:44.918Z,52.89
2018-07-31T01:42:44.910Z,52.79
2018-07-31T01:43:44.896Z,52.79
2018-07-31T01:44:44.887Z,52.69
2018-07-31T01:45:44.948Z,52.99
2018-07-31T01:46:44.868Z,52.79
2018-07-31T01:47:44.857Z,52.59
2018-07-31T01:48:44.848Z,53.29
2018-07-31T01:49:44.832Z,52.69
2018-07-31T01:50:44.885Z,53.99
2018-07-31T01:51:44.813Z,53.59
2018-07-31T01:52:44.804Z,52.79
2018-07-31T01:53:45.493Z,53.99
2018-07-31T01:54:44.780Z,52.92
2018-07-31T01:55:44.833Z,53.78
2018-07-31T01:56:44.760Z,54.01
2018-07-31T01:57:45.489Z,53.61
2018-07-31T01:58:44.736Z,52.89
2018-07-31T01:59:44.817Z,53.02
2018-07-31T02:00:44.793Z,52.92
2018-07-31T02:01:45.484Z,52.02
2018-07-31T02:02:44.697Z,52.72
2018-07-31T02:03:44.688Z,51.92
2018-07-31T02:04:44.750Z,53.11
2018-07-31T02:05:44.666Z,52.42
2018-07-31T02:06:44.716Z,52.92
2018-07-31T02:07:44.651Z,52.99
2018-07-31T02:08:44.633Z,52.92
2018-07-31T02:09:44.622Z,53.31
2018-07-31T02:10:44.616Z,53.41
2018-07-31T02:11:44.671Z,53.91
2018-07-31T02:12:44.594Z,52.12
2018-07-31T02:13:44.589Z,51.03
2018-07-31T02:14:44.569Z,52.42
2018-07-31T02:15:44.558Z,50.62
2018-07-31T02:16:44.630Z,52.32
2018-07-31T02:17:44.537Z,53.22
2018-07-31T02:18:44.525Z,52.72
2018-07-31T02:19:44.514Z,51.72
2018-07-31T02:20:44.503Z,52.42
2018-07-31T02:21:44.561Z,52.62
2018-07-31T02:22:44.985Z,54.11
2018-07-31T02:23:44.478Z,53.71
2018-07-31T02:24:44.467Z,52.02
2018-07-31T02:25:44.456Z,53.14
2018-07-31T02:26:44.506Z,53.64
2018-07-31T02:27:44.436Z,52.72
2018-07-31T02:28:44.484Z,52.55
2018-07-31T02:29:44.415Z,53.94
2018-07-31T02:30:44.401Z,54.14
2018-07-31T02:31:44.456Z,54.64
2018-07-31T02:32:44.379Z,54.74
2018-07-31T02:33:44.370Z,54.34
2018-07-31T02:34:44.364Z,55.04
2018-07-31T02:35:44.350Z,54.44
2018-07-31T02:36:44.401Z,55.24
2018-07-31T02:37:44.329Z,56.33
2018-07-31T02:38:44.317Z,55.13
2018-07-31T02:39:44.306Z,55.16
2018-07-31T02:40:44.300Z,55.86
2018-07-31T02:41:44.354Z,54.94
2018-07-31T02:42:44.275Z,56.46
2018-07-31T02:43:44.991Z,56.36
2018-07-31T02:44:44.253Z,56.26
2018-07-31T02:45:44.243Z,56.33
2018-07-31T02:46:44.298Z,56.56
2018-07-31T02:47:44.224Z,56.46
2018-07-31T02:48:44.209Z,57.26
2018-07-31T02:49:44.201Z,57.56
2018-07-31T02:50:44.190Z,57.88
2018-07-31T02:51:44.243Z,56.68
2018-07-31T02:52:44.176Z,56.96
2018-07-31T02:53:44.157Z,58.08
2018-07-31T02:54:44.149Z,57.58
2018-07-31T02:55:44.138Z,57.88
2018-07-31T02:56:44.193Z,57.78
2018-07-31T02:57:44.114Z,57.88
2018-07-31T02:58:44.108Z,58.08
2018-07-31T02:59:44.099Z,57.78
2018-07-31T03:00:44.084Z,58.08
2018-07-31T03:01:44.137Z,58.18
2018-07-31T03:02:44.065Z,57.88
2018-07-31T03:03:44.051Z,57.88
2018-07-31T03:04:44.983Z,57.58
2018-07-31T03:05:44.032Z,56.98
2018-07-31T03:06:51.608Z,58.88
2018-07-31T03:07:52.136Z,58.58
2018-07-31T03:08:43.999Z,58.61
2018-07-31T03:09:52.052Z,59.28
2018-07-31T03:10:43.985Z,60.38
2018-07-31T03:11:44.029Z,59.38
2018-07-31T03:12:43.955Z,60.31
2018-07-31T03:13:43.946Z,59.51
2018-07-31T03:14:43.936Z,58.71
2018-07-31T03:15:43.922Z,58.11
2018-07-31T03:16:43.975Z,60.21
2018-07-31T03:17:51.998Z,61.10
2018-07-31T03:18:43.893Z,61.00
2018-07-31T03:19:43.888Z,61.30
2018-07-31T03:20:43.869Z,60.41
2018-07-31T03:21:43.927Z,60.61
2018-07-31T03:22:43.846Z,59.51
2018-07-31T03:23:43.839Z,59.70
2018-07-31T03:24:43.825Z,61.00
2018-07-31T03:25:43.818Z,60.63
2018-07-31T03:26:44.190Z,60.74
2018-07-31T03:27:43.794Z,61.51
2018-07-31T03:28:43.783Z,61.30
2018-07-31T03:29:43.778Z,61.54
2018-07-31T03:30:43.761Z,61.54
2018-07-31T03:31:43.820Z,62.04
2018-07-31T03:32:43.745Z,61.54
2018-07-31T03:33:43.734Z,61.83
2018-07-31T03:34:43.735Z,61.73
2018-07-31T03:35:43.712Z,62.63
2018-07-31T03:36:43.761Z,61.63
2018-07-31T03:37:43.687Z,62.43
2018-07-31T03:38:44.613Z,61.54
2018-07-31T03:39:43.672Z,61.33
2018-07-31T03:40:43.656Z,62.34
2018-07-31T03:41:43.711Z,61.93
2018-07-31T03:42:43.633Z,61.93
2018-07-31T03:43:43.622Z,61.73
2018-07-31T03:44:43.619Z,62.76
2018-07-31T03:45:43.601Z,61.87
2018-07-31T03:46:43.655Z,61.13
2018-07-31T03:47:43.584Z,62.76
2018-07-31T03:48:43.573Z,62.63
2018-07-31T03:49:43.567Z,62.53
2018-07-31T03:50:43.550Z,62.93
2018-07-31T03:51:43.611Z,62.43
2018-07-31T03:52:43.525Z,62.76
2018-07-31T03:53:43.578Z,63.26
2018-07-31T03:54:43.504Z,63.76
2018-07-31T03:55:43.495Z,63.73
2018-07-31T03:56:43.482Z,63.46
2018-07-31T03:57:43.549Z,63.66
2018-07-31T03:58:43.459Z,63.36
2018-07-31T03:59:44.108Z,64.06
2018-07-31T04:00:43.440Z,64.63
2018-07-31T04:01:43.431Z,63.76
2018-07-31T04:02:43.481Z,63.63
2018-07-31T04:03:43.411Z,63.76
2018-07-31T04:04:43.440Z,63.76
2018-07-31T04:05:43.387Z,64.56
2018-07-31T04:06:43.388Z,64.96
2018-07-31T04:07:43.436Z,64.36
2018-07-31T04:08:43.359Z,63.36
2018-07-31T04:09:43.346Z,65.06
2018-07-31T04:10:43.332Z,64.56
2018-07-31T04:11:43.326Z,64.46
2018-07-31T04:12:43.377Z,64.96
2018-07-31T04:13:43.301Z,64.66
2018-07-31T04:14:43.294Z,63.66
2018-07-31T04:15:43.283Z,64.76
2018-07-31T04:16:43.289Z,65.16
2018-07-31T04:17:43.334Z,64.46
2018-07-31T04:18:43.249Z,65.16
2018-07-31T04:19:43.238Z,63.96
2018-07-31T04:20:44.109Z,63.76
2018-07-31T04:21:43.215Z,64.56
2018-07-31T04:22:43.268Z,64.86
2018-07-31T04:23:43.196Z,63.17
2018-07-31T04:24:43.191Z,64.73
2018-07-31T04:25:43.174Z,63.96
2018-07-31T04:26:43.161Z,63.83
2018-07-31T04:27:43.213Z,64.86
2018-07-31T04:28:43.138Z,64.56
2018-07-31T04:29:43.130Z,64.63
2018-07-31T04:30:43.124Z,64.96
2018-07-31T04:31:43.114Z,64.83
2018-07-31T04:32:43.163Z,64.83
2018-07-31T04:33:43.094Z,64.66
2018-07-31T04:34:43.078Z,63.63
2018-07-31T04:35:43.073Z,64.93
2018-07-31T04:36:43.055Z,63.23
2018-07-31T04:37:43.109Z,61.83
2018-07-31T04:38:43.033Z,62.63
2018-07-31T04:39:43.020Z,63.53
2018-07-31T04:40:43.009Z,63.43
2018-07-31T04:41:43.609Z,63.83
2018-07-31T04:42:43.055Z,62.13
2018-07-31T04:43:42.978Z,63.23
2018-07-31T04:44:42.972Z,62.83
2018-07-31T04:45:42.959Z,63.73
2018-07-31T04:46:42.947Z,63.73
2018-07-31T04:47:43.003Z,63.83
2018-07-31T04:48:42.931Z,62.73
2018-07-31T04:49:42.914Z,63.63
2018-07-31T04:50:42.911Z,63.20
2018-07-31T04:51:42.898Z,63.70
2018-07-31T04:52:42.955Z,61.41
2018-07-31T04:53:42.872Z,62.70
2018-07-31T04:54:42.863Z,61.63
2018-07-31T04:55:42.850Z,62.43
2018-07-31T04:56:42.893Z,61.93
2018-07-31T04:57:42.895Z,62.34
2018-07-31T04:58:42.818Z,59.91
2018-07-31T04:59:42.806Z,62.01
2018-07-31T05:00:42.798Z,59.81
2018-07-31T05:01:42.787Z,60.31
2018-07-31T05:02:43.181Z,61.71
2018-07-31T05:03:42.770Z,62.01
2018-07-31T05:04:42.756Z,61.80
2018-07-31T05:05:42.745Z,61.71
2018-07-31T05:06:42.737Z,62.60
2018-07-31T05:07:43.181Z,62.70
2018-07-31T05:08:42.712Z,60.63
2018-07-31T05:09:42.704Z,61.43
2018-07-31T05:10:42.692Z,62.10
2018-07-31T05:11:42.702Z,62.60
2018-07-31T05:12:42.736Z,63.00
2018-07-31T05:13:42.659Z,61.71
2018-07-31T05:14:42.648Z,63.00
2018-07-31T05:15:42.638Z,61.60
2018-07-31T05:16:42.636Z,62.73
2018-07-31T05:17:42.682Z,61.73
2018-07-31T05:18:42.613Z,62.83
2018-07-31T05:19:42.675Z,62.70
2018-07-31T05:20:42.656Z,62.70
2018-07-31T05:21:42.656Z,63.53
2018-07-31T05:22:42.690Z,62.93
2018-07-31T05:23:43.116Z,62.93
2018-07-31T05:24:43.145Z,61.51
2018-07-31T05:25:42.543Z,61.73
2018-07-31T05:26:42.529Z,61.80
2018-07-31T05:32:32.137Z,61.77
2018-07-31T05:33:31.558Z,62.57
2018-07-31T05:34:31.507Z,61.18
2018-07-31T05:35:31.372Z,61.74
2018-07-31T05:36:32.529Z,62.84
2018-07-31T05:37:31.540Z,61.74
2018-07-31T05:38:31.399Z,62.04
2018-07-31T05:39:31.570Z,61.41
2018-07-31T05:40:39.939Z,61.65
2018-07-31T05:54:33.829Z,59.14
2018-07-31T05:55:33.490Z,58.22
2018-07-31T05:56:33.473Z,55.13
2018-07-31T05:57:33.539Z,55.70
2018-07-31T05:58:33.555Z,55.80
2018-07-31T05:59:33.451Z,55.90
2018-07-31T06:00:34.079Z,54.88
2018-07-31T06:01:33.421Z,54.68
2018-07-31T06:02:33.415Z,55.35
2018-07-31T06:03:33.504Z,55.85
2018-07-31T06:04:33.388Z,54.35
2018-07-31T06:05:33.386Z,54.33
2018-07-31T06:06:33.368Z,55.02
2018-07-31T06:07:33.379Z,54.90
2018-07-31T06:08:33.408Z,53.01
2018-07-31T06:09:33.393Z,52.39
2018-07-31T06:10:33.327Z,52.79
2018-07-31T06:11:33.331Z,52.86
2018-07-31T06:12:33.302Z,53.26
2018-07-31T06:13:33.381Z,51.67
2018-07-31T06:14:33.286Z,51.25
2018-07-31T06:15:34.093Z,51.52
2018-07-31T06:16:33.268Z,52.29
2018-07-31T06:17:33.276Z,53.18
2018-07-31T06:18:33.323Z,52.88
2018-07-31T06:19:33.229Z,52.69
2018-07-31T06:20:33.232Z,53.38
2018-07-31T06:21:33.218Z,52.86
2018-07-31T06:24:04.361Z,51.57
2018-07-31T06:25:04.307Z,51.97
2018-07-31T06:26:04.256Z,51.45
2018-07-31T06:27:04.223Z,51.54
2018-07-31T06:28:11.827Z,51.94
2018-07-31T06:29:04.115Z,51.65
2018-07-31T06:30:04.207Z,52.44
2018-07-31T06:31:04.079Z,51.65
2018-07-31T06:32:04.140Z,52.44
2018-07-31T06:33:04.041Z,53.33
2018-07-31T06:34:04.062Z,52.54
2018-07-31T06:35:04.745Z,53.33
2018-07-31T06:36:03.980Z,54.35
2018-07-31T06:37:03.968Z,53.65
2018-07-31T06:38:03.965Z,54.37
2018-07-31T06:39:04.015Z,54.67
2018-07-31T06:40:03.949Z,54.57
2018-07-31T06:41:03.929Z,54.67
2018-07-31T06:42:03.918Z,54.86
2018-07-31T06:43:03.910Z,54.77
2018-07-31T06:44:03.965Z,54.27
2018-07-31T06:45:03.888Z,55.26
2018-07-31T06:46:03.874Z,54.77
2018-07-31T06:47:03.968Z,54.57
2018-07-31T06:48:03.855Z,54.67
2018-07-31T06:49:04.317Z,53.78
2018-07-31T06:50:03.838Z,54.67
2018-07-31T06:51:03.856Z,54.47
2018-07-31T06:52:03.813Z,55.06
2018-07-31T06:53:03.802Z,54.67
2018-07-31T06:54:03.864Z,54.77
2018-07-31T06:55:03.782Z,54.27
2018-07-31T06:56:03.774Z,54.86
2018-07-31T06:57:03.789Z,54.47
2018-07-31T06:58:03.754Z,53.78
2018-07-31T06:59:03.812Z,53.16
2018-07-31T07:00:03.815Z,52.66
2018-07-31T07:01:11.591Z,52.26
2018-07-31T07:02:13.326Z,52.46
2018-07-31T07:04:10.523Z,52.64
2018-07-31T07:05:18.641Z,52.34
2018-07-31T07:06:10.423Z,51.92
2018-07-31T07:07:18.169Z,52.01
2018-07-31T07:08:10.359Z,52.51
2018-07-31T07:11:43.321Z,51.18
2018-07-31T07:15:02.936Z,49.62
2018-07-31T07:17:11.929Z,49.72
2018-07-31T07:18:11.836Z,50.19
2018-07-31T07:19:11.854Z,49.10
2018-07-31T07:20:11.739Z,47.63
2018-07-31T07:21:11.718Z,47.58
2018-07-31T07:22:11.693Z,46.57
2018-07-31T07:23:12.583Z,47.46
2018-07-31T07:24:11.758Z,46.35
2018-07-31T07:25:11.674Z,46.13
2018-07-31T07:26:11.662Z,45.42
2018-07-31T07:27:11.649Z,45.40
2018-07-31T07:28:11.641Z,44.69
2018-07-31T07:29:11.700Z,44.59
2018-07-31T07:30:11.613Z,43.49
2018-07-31T07:31:11.612Z,43.59
2018-07-31T07:32:11.601Z,43.88
2018-07-31T07:33:11.588Z,44.37
2018-07-31T07:34:11.656Z,44.30
2018-07-31T07:35:11.568Z,44.69
2018-07-31T07:36:12.464Z,43.61
2018-07-31T07:37:11.546Z,42.96
2018-07-31T07:38:12.460Z,42.94
2018-07-31T07:39:11.597Z,41.84
2018-07-31T07:40:11.528Z,43.13
2018-07-31T07:41:11.515Z,43.43
2018-07-31T07:42:11.499Z,43.47
2018-07-31T07:43:11.490Z,43.96
2018-07-31T07:44:11.550Z,43.79
2018-07-31T07:45:11.468Z,44.59
2018-07-31T07:46:11.462Z,44.49
2018-07-31T07:47:11.461Z,44.89
2018-07-31T07:48:11.440Z,44.69
2018-07-31T07:49:11.505Z,44.08
2018-07-31T07:50:11.423Z,43.76
2018-07-31T07:51:11.425Z,43.76
2018-07-31T07:52:11.398Z,43.15
2018-07-31T07:53:11.392Z,42.94
2018-07-31T07:54:11.543Z,41.45
2018-07-31T07:55:11.370Z,41.02
2018-07-31T07:56:11.362Z,41.21
2018-07-31T07:57:11.354Z,39.80
2018-07-31T07:58:11.340Z,39.10
2018-07-31T07:59:11.542Z,39.10
2018-07-31T08:00:11.324Z,38.98
2018-07-31T08:01:11.318Z,38.28
2018-07-31T08:02:11.331Z,37.87
2018-07-31T08:03:11.343Z,38.26
2018-07-31T08:04:11.305Z,37.38
2018-07-31T08:05:11.340Z,38.24
2018-07-31T08:06:11.265Z,38.06
2018-07-31T08:07:11.259Z,37.55
2018-07-31T08:08:11.250Z,38.57
2018-07-31T08:09:11.237Z,38.35
2018-07-31T08:10:11.311Z,38.45
2018-07-31T08:11:11.224Z,37.65
2018-07-31T08:12:11.259Z,38.12
2018-07-31T08:13:11.201Z,38.22
2018-07-31T08:14:11.961Z,36.94
2018-07-31T08:15:11.245Z,37.43
2018-07-31T08:16:11.189Z,37.83
2018-07-31T08:17:11.167Z,38.01
2018-07-31T08:18:11.164Z,36.65
2018-07-31T08:19:11.153Z,37.54
2018-07-31T08:20:14.548Z,36.65
2018-07-31T08:21:11.134Z,37.04
2018-07-31T08:22:11.126Z,36.82
2018-07-31T08:23:11.117Z,36.02
2018-07-31T08:24:11.108Z,35.42
2018-07-31T08:25:11.158Z,35.21
2018-07-31T08:26:11.089Z,34.24
2018-07-31T08:27:11.083Z,34.05
2018-07-31T08:28:11.070Z,35.11
2018-07-31T08:29:11.064Z,34.61
2018-07-31T08:30:11.117Z,34.01
2018-07-31T08:31:11.045Z,34.30
2018-07-31T08:32:11.038Z,33.90
2018-07-31T08:33:11.030Z,32.82
2018-07-31T08:34:11.022Z,33.01
2018-07-31T08:35:11.085Z,33.20
2018-07-31T08:36:11.008Z,33.38
2018-07-31T08:37:11.001Z,33.84
2018-07-31T08:38:10.988Z,32.78
2018-07-31T08:39:10.981Z,32.28
2018-07-31T08:40:11.041Z,31.87
2018-07-31T08:41:11.971Z,32.17
2018-07-31T08:42:10.957Z,31.18
2018-07-31T08:43:10.948Z,31.86
2018-07-31T08:44:10.940Z,32.15
2018-07-31T08:45:10.999Z,31.16
2018-07-31T08:46:10.926Z,31.05
2018-07-31T08:47:10.918Z,30.47
2018-07-31T08:48:10.907Z,31.26
2018-07-31T08:49:10.904Z,31.18
2018-07-31T08:50:10.957Z,31.21
2018-07-31T08:51:10.941Z,32.49
2018-07-31T08:52:10.876Z,31.20
2018-07-31T08:53:10.868Z,31.01
2018-07-31T08:54:10.859Z,31.23
2018-07-31T08:55:10.918Z,32.21
2018-07-31T08:56:10.848Z,31.94
2018-07-31T08:57:10.842Z,32.31
2018-07-31T08:58:10.828Z,32.37
2018-07-31T08:59:10.819Z,31.76
2018-07-31T09:00:10.872Z,31.37
2018-07-31T09:01:10.806Z,30.89
2018-07-31T09:02:11.454Z,30.49
2018-07-31T09:03:10.789Z,30.39
2018-07-31T09:04:10.783Z,29.70
2018-07-31T09:05:10.833Z,29.44
2018-07-31T09:06:10.765Z,30.41
2018-07-31T09:07:10.755Z,31.16
2018-07-31T09:08:10.755Z,30.66
2018-07-31T09:09:10.739Z,29.70
2018-07-31T09:10:10.791Z,29.60
2018-07-31T09:11:10.722Z,28.81
2018-07-31T09:12:10.714Z,28.81
2018-07-31T09:13:10.704Z,29.01
2018-07-31T09:14:10.699Z,28.12
2018-07-31T09:15:10.756Z,28.99
2018-07-31T09:16:10.679Z,27.35
2018-07-31T09:17:10.679Z,28.50
2018-07-31T09:18:10.666Z,28.87
2018-07-31T09:19:10.657Z,27.40
2018-07-31T09:20:10.715Z,27.02
2018-07-31T09:21:10.640Z,27.68
2018-07-31T09:22:10.637Z,27.01
2018-07-31T09:23:11.450Z,27.01
2018-07-31T09:24:10.633Z,26.80
2018-07-31T09:25:10.688Z,26.62
2018-07-31T09:26:10.603Z,27.61
2018-07-31T09:27:10.596Z,26.53
2018-07-31T09:28:10.587Z,26.51
2018-07-31T09:29:10.581Z,26.50
2018-07-31T09:30:10.641Z,26.70
2018-07-31T09:31:10.591Z,25.82
2018-07-31T09:32:10.559Z,26.00
2018-07-31T09:33:10.552Z,27.17
2018-07-31T09:34:10.544Z,26.90
2018-07-31T09:35:10.605Z,26.90
2018-07-31T09:36:10.524Z,27.59
2018-07-31T09:37:10.519Z,27.49
2018-07-31T09:38:10.555Z,27.48
2018-07-31T09:39:10.504Z,27.46
2018-07-31T09:40:10.573Z,27.46
2018-07-31T09:41:10.487Z,27.37
2018-07-31T09:42:10.482Z,27.00
2018-07-31T09:43:10.473Z,26.32
2018-07-31T09:44:17.989Z,25.93
2018-07-31T09:45:10.458Z,26.40
2018-07-31T09:46:10.513Z,26.80
2018-07-31T09:47:10.442Z,26.62
2018-07-31T09:48:10.434Z,27.02
2018-07-31T09:49:10.426Z,27.13
2018-07-31T09:50:10.418Z,26.54
2018-07-31T09:51:10.473Z,26.04
2018-07-31T09:52:10.986Z,26.98
2018-07-31T09:53:10.392Z,25.23
2018-07-31T09:54:10.389Z,24.45
2018-07-31T09:55:10.379Z,25.03
2018-07-31T09:56:10.430Z,25.13
2018-07-31T09:57:10.422Z,24.93
2018-07-31T09:58:10.358Z,25.07
2018-07-31T09:59:10.401Z,26.65
2018-07-31T10:00:10.343Z,25.85
2018-07-31T10:01:10.404Z,26.91
2018-07-31T10:02:10.337Z,27.23
2018-07-31T10:03:10.322Z,27.45
2018-07-31T10:04:10.310Z,26.28
2018-07-31T10:05:11.034Z,25.93
2018-07-31T10:06:10.362Z,24.86
2018-07-31T10:07:10.285Z,25.15
2018-07-31T10:08:10.280Z,25.15
2018-07-31T10:09:10.271Z,26.54
2018-07-31T10:10:10.268Z,26.14
2018-07-31T10:11:10.329Z,26.03
2018-07-31T10:12:10.279Z,26.43
2018-07-31T10:13:10.240Z,26.75
2018-07-31T10:14:10.234Z,25.71
2018-07-31T10:15:10.226Z,25.99
2018-07-31T10:16:10.282Z,26.35
2018-07-31T10:17:10.215Z,25.64
2018-07-31T10:18:10.263Z,25.93
2018-07-31T10:19:10.195Z,25.32
2018-07-31T10:20:10.194Z,24.26
2018-07-31T10:21:10.239Z,24.54
2018-07-31T10:22:10.173Z,24.63
2018-07-31T10:23:10.161Z,24.76
2018-07-31T10:24:10.164Z,24.88
2018-07-31T10:25:10.147Z,26.64
2018-07-31T10:26:10.554Z,25.89
2018-07-31T10:27:10.128Z,26.48
2018-07-31T10:28:10.119Z,26.97
2018-07-31T10:29:10.113Z,27.17
2018-07-31T10:30:10.105Z,27.49
2018-07-31T10:31:10.155Z,27.58
2018-07-31T10:32:10.086Z,27.31
2018-07-31T10:33:10.082Z,27.51
2018-07-31T10:34:10.068Z,27.43
2018-07-31T10:35:10.057Z,28.51
2018-07-31T10:36:10.113Z,29.68
2018-07-31T10:37:10.049Z,29.11
2018-07-31T10:38:10.033Z,28.51
2018-07-31T10:39:10.027Z,27.50
2018-07-31T10:40:10.019Z,26.55
2018-07-31T10:41:10.068Z,25.75
2018-07-31T10:42:10.001Z,26.26
2018-07-31T10:43:09.990Z,26.45
2018-07-31T10:44:09.985Z,26.45
2018-07-31T10:45:09.973Z,26.77
2018-07-31T10:46:10.029Z,26.95
2018-07-31T10:47:10.478Z,26.67
2018-07-31T10:48:09.946Z,26.68
2018-07-31T10:49:09.943Z,26.68
2018-07-31T10:50:09.934Z,27.19
2018-07-31T10:51:10.072Z,27.26
2018-07-31T10:52:09.918Z,27.57
2018-07-31T10:53:09.916Z,27.39
2018-07-31T10:54:09.895Z,27.60
2018-07-31T10:55:17.999Z,28.38
2018-07-31T10:56:18.133Z,27.89
2018-07-31T10:57:18.014Z,28.58
2018-07-31T10:58:18.515Z,28.40
2018-07-31T10:59:17.935Z,28.50
2018-07-31T11:00:09.885Z,29.00
2018-07-31T11:01:09.894Z,29.58
2018-07-31T11:02:09.820Z,28.66
2018-07-31T11:03:17.345Z,26.50
2018-07-31T11:04:17.920Z,27.57
2018-07-31T11:05:18.394Z,27.15
2018-07-31T11:06:17.412Z,26.50
2018-07-31T11:07:17.298Z,26.46
2018-07-31T11:08:09.774Z,25.45
2018-07-31T11:09:09.758Z,26.62
2018-07-31T11:10:09.751Z,26.45
2018-07-31T11:11:09.800Z,26.77
2018-07-31T11:12:09.730Z,25.85
2018-07-31T11:13:09.884Z,26.44
2018-07-31T11:14:09.721Z,26.37
2018-07-31T11:15:09.703Z,26.57
2018-07-31T11:16:09.755Z,26.95
2018-07-31T11:17:10.330Z,26.78
2018-07-31T11:18:09.677Z,26.79
2018-07-31T11:19:09.668Z,27.09
2018-07-31T11:20:09.658Z,27.29
2018-07-31T11:21:09.828Z,27.31
2018-07-31T11:22:09.641Z,27.61
2018-07-31T11:23:09.701Z,27.53
2018-07-31T11:24:09.624Z,27.62
2018-07-31T11:25:09.614Z,28.80
2018-07-31T11:26:09.602Z,29.00
2018-07-31T11:27:09.655Z,29.21
2018-07-31T11:28:10.325Z,28.53
2018-07-31T11:29:09.577Z,28.72
2018-07-31T11:30:09.566Z,28.93
2018-07-31T11:31:09.557Z,29.61
2018-07-31T11:32:09.608Z,29.12
2018-07-31T11:33:09.556Z,28.64
2018-07-31T11:34:09.531Z,28.34
2018-07-31T11:35:09.519Z,29.12
2018-07-31T11:36:09.508Z,29.32
2018-07-31T11:37:09.557Z,29.02
2018-07-31T11:38:09.488Z,29.12
2018-07-31T11:39:09.480Z,30.01
2018-07-31T11:40:09.471Z,29.62
2018-07-31T11:41:09.460Z,29.72
2018-07-31T11:42:09.510Z,30.01
2018-07-31T11:43:09.443Z,30.29
2018-07-31T11:44:09.428Z,29.38
2018-07-31T11:45:09.424Z,27.98
2018-07-31T11:46:09.415Z,27.13
2018-07-31T11:47:09.462Z,26.56
2018-07-31T11:48:09.390Z,27.36
2018-07-31T11:49:10.329Z,28.25
2018-07-31T11:50:09.431Z,27.96
2018-07-31T11:51:09.365Z,27.14
2018-07-31T11:52:09.420Z,26.80
2018-07-31T11:53:09.345Z,25.69
2018-07-31T11:54:09.337Z,24.79
2018-07-31T11:55:09.329Z,24.28
2018-07-31T11:56:09.339Z,24.79
2018-07-31T11:57:09.378Z,25.88
2018-07-31T11:58:09.305Z,26.11
2018-07-31T11:59:09.297Z,26.53
2018-07-31T12:00:09.290Z,27.14
2018-07-31T12:01:09.282Z,27.55
2018-07-31T12:02:09.341Z,28.54
2018-07-31T12:03:09.262Z,29.23
2018-07-31T12:04:09.266Z,28.86
2018-07-31T12:05:09.243Z,29.08
2018-07-31T12:06:09.234Z,29.28
2018-07-31T12:07:09.286Z,30.94
2018-07-31T12:08:09.219Z,30.84
2018-07-31T12:09:09.208Z,30.27
2018-07-31T12:10:09.826Z,30.95
2018-07-31T12:11:09.189Z,30.76
2018-07-31T12:12:09.239Z,30.47
2018-07-31T12:13:09.170Z,30.87
2018-07-31T12:14:09.161Z,30.77
2018-07-31T12:15:09.156Z,30.58
2018-07-31T12:16:09.142Z,30.88
2018-07-31T12:17:09.192Z,31.37
2018-07-31T12:18:09.131Z,31.18
2018-07-31T12:19:09.164Z,31.29
2018-07-31T12:20:09.103Z,31.29
2018-07-31T12:21:09.094Z,30.71
2018-07-31T12:22:09.144Z,31.19
2018-07-31T12:23:09.075Z,30.50
2018-07-31T12:24:09.066Z,30.57
2018-07-31T12:25:09.056Z,29.27
2018-07-31T12:26:09.050Z,28.86
2018-07-31T12:27:09.113Z,27.76
2018-07-31T12:28:09.028Z,27.96
2018-07-31T12:29:09.024Z,27.56
2018-07-31T12:30:09.008Z,27.02
2018-07-31T12:31:09.832Z,25.82
2018-07-31T12:32:09.055Z,25.31
2018-07-31T12:33:09.054Z,25.04
2018-07-31T12:34:08.975Z,24.73
2018-07-31T12:35:08.970Z,25.12
2018-07-31T12:36:08.958Z,25.82
2018-07-31T12:37:09.010Z,25.21
2018-07-31T12:38:08.963Z,24.92
2018-07-31T12:39:08.933Z,23.14
2018-07-31T12:40:08.926Z,23.62
2018-07-31T12:41:08.921Z,24.81
2018-07-31T12:42:08.982Z,24.74
2018-07-31T12:43:08.902Z,25.04
2018-07-31T12:44:08.965Z,26.00
2018-07-31T12:45:08.887Z,25.54
2018-07-31T12:46:08.876Z,25.21
2018-07-31T12:47:08.944Z,24.20
2018-07-31T12:48:08.860Z,23.42
2018-07-31T12:49:08.849Z,23.78
2018-07-31T12:50:08.886Z,23.42
2018-07-31T12:51:08.834Z,23.42
2018-07-31T12:52:09.401Z,23.61
2018-07-31T12:53:08.820Z,23.32
2018-07-31T12:54:08.814Z,24.19
2018-07-31T12:55:08.805Z,22.81
2018-07-31T12:56:08.798Z,23.27
2018-07-31T12:57:08.847Z,22.80
2018-07-31T12:58:08.780Z,23.69
2018-07-31T12:59:08.775Z,24.49
2018-07-31T13:00:08.766Z,25.09
2018-07-31T13:01:08.755Z,24.44
2018-07-31T13:02:08.824Z,24.92
2018-07-31T13:03:08.743Z,25.60
2018-07-31T13:04:08.732Z,24.73
2018-07-31T13:05:08.727Z,25.16
2018-07-31T13:06:08.719Z,23.88
2018-07-31T13:07:08.710Z,22.61
2018-07-31T13:08:08.792Z,22.98
2018-07-31T13:09:08.696Z,22.77
2018-07-31T13:10:08.685Z,22.28
2018-07-31T13:11:08.684Z,22.27
2018-07-31T13:12:08.676Z,21.78
2018-07-31T13:13:08.908Z,20.45
2018-07-31T13:14:08.660Z,20.53
2018-07-31T13:15:08.651Z,22.14
2018-07-31T13:16:08.648Z,21.18
2018-07-31T13:17:08.636Z,20.51
2018-07-31T13:18:08.692Z,21.28
2018-07-31T13:19:08.625Z,20.99